createdAt,value
2023-04-26T00:00:33.916Z,11.39
2023-04-26T00:03:01.061Z,11.40
2023-04-26T00:05:28.498Z,11.42
2023-04-26T00:07:55.492Z,11.44
2023-04-26T00:10:22.593Z,11.45
2023-04-26T00:12:49.608Z,11.48
2023-04-26T00:15:16.571Z,11.50
2023-04-26T00:17:44.070Z,11.50
2023-04-26T00:20:13.105Z,11.51
2023-04-26T00:22:40.881Z,11.51
2023-04-26T00:25:08.768Z,11.52
2023-04-26T00:27:35.812Z,11.51
2023-04-26T00:30:02.852Z,11.52
2023-04-26T00:32:31.032Z,11.51
2023-04-26T00:35:00.052Z,11.52
2023-04-26T00:37:29.513Z,11.53
2023-04-26T00:39:58.304Z,11.53
2023-04-26T00:42:28.277Z,11.54
2023-04-26T00:54:17.145Z,11.59
2023-04-26T00:56:46.660Z,11.61
2023-04-26T00:59:16.642Z,11.61
2023-04-26T01:01:46.682Z,11.67
2023-04-26T01:04:16.381Z,11.69
2023-04-26T01:06:46.717Z,11.70
2023-04-26T01:09:16.781Z,11.72
2023-04-26T01:11:47.218Z,11.73
2023-04-26T01:14:16.701Z,11.73
2023-04-26T01:16:47.739Z,11.74
2023-04-26T01:19:18.697Z,11.76
2023-04-26T01:21:48.689Z,11.79
2023-04-26T01:24:19.682Z,11.81
2023-04-26T01:26:49.720Z,11.84
2023-04-26T01:29:20.673Z,11.85
2023-04-26T01:31:50.772Z,11.87
2023-04-26T01:42:00.415Z,11.96
2023-04-26T01:44:27.443Z,11.96
2023-04-26T01:46:54.300Z,11.90
2023-04-26T01:49:21.159Z,11.91
2023-04-26T01:51:47.979Z,11.94
2023-04-26T01:54:14.779Z,11.94
2023-04-26T01:56:41.590Z,11.94
2023-04-26T01:59:08.404Z,11.95
2023-04-26T02:01:35.309Z,11.96
2023-04-26T02:04:02.702Z,11.96
2023-04-26T02:06:29.506Z,11.97
2023-04-26T02:08:57.029Z,11.97
2023-04-26T02:11:24.760Z,11.98
2023-04-26T02:13:51.879Z,11.98
2023-04-26T02:16:21.476Z,11.98
2023-04-26T02:18:50.254Z,11.99
2023-04-26T02:21:18.740Z,12.00
2023-04-26T02:23:45.967Z,11.97
2023-04-26T02:26:13.516Z,11.99
2023-04-26T02:28:43.604Z,12.00
2023-04-26T02:31:11.371Z,12.02
2023-04-26T02:33:38.440Z,11.99
2023-04-26T02:36:06.404Z,12.01
2023-04-26T02:38:35.345Z,12.01
2023-04-26T02:41:03.582Z,11.99
2023-04-26T02:43:31.126Z,11.94
2023-04-26T02:46:01.460Z,11.96
2023-04-26T02:48:29.373Z,12.00
2023-04-26T02:50:57.398Z,12.00
2023-04-26T02:53:24.777Z,11.98
2023-04-26T02:55:52.209Z,11.97
2023-04-26T02:58:19.069Z,11.95
2023-04-26T03:00:49.004Z,11.94
2023-04-26T03:03:16.976Z,11.93
2023-04-26T03:05:45.172Z,11.92
2023-04-26T03:08:12.408Z,11.91
2023-04-26T03:10:39.239Z,11.90
2023-04-26T03:13:06.259Z,11.89
2023-04-26T03:15:33.296Z,11.89
2023-04-26T03:18:00.383Z,11.91
2023-04-26T03:20:27.768Z,11.92
2023-04-26T03:22:54.996Z,11.94
2023-04-26T03:25:22.108Z,11.96
2023-04-26T03:27:49.013Z,11.96
2023-04-26T03:30:16.051Z,11.98
2023-04-26T03:32:44.324Z,12.01
2023-04-26T03:35:11.514Z,12.04
2023-04-26T03:37:39.950Z,12.07
2023-04-26T03:40:09.628Z,12.10
2023-04-26T03:42:37.711Z,12.12
2023-04-26T03:45:05.449Z,12.12
2023-04-26T03:47:32.356Z,12.13
2023-04-26T03:49:59.235Z,12.13
2023-04-26T03:52:26.084Z,12.14
2023-04-26T03:54:53.234Z,12.15
2023-04-26T03:57:20.122Z,12.16
2023-04-26T03:59:47.021Z,12.16
2023-04-26T04:02:14.009Z,12.16
2023-04-26T04:04:41.399Z,12.14
2023-04-26T04:07:08.946Z,12.13
2023-04-26T04:09:36.163Z,12.10
2023-04-26T04:12:03.909Z,12.05
2023-04-26T04:14:32.601Z,11.99
2023-04-26T04:16:59.837Z,11.94
2023-04-26T04:19:27.781Z,11.92
2023-04-26T04:21:55.272Z,11.92
2023-04-26T04:24:22.418Z,11.90
2023-04-26T04:26:49.247Z,11.90
2023-04-26T04:29:16.788Z,11.90
2023-04-26T04:31:43.992Z,11.93
2023-04-26T04:34:11.125Z,11.97
2023-04-26T04:36:40.881Z,12.00
2023-04-26T04:39:13.664Z,12.03
2023-04-26T04:41:47.619Z,12.08
2023-04-26T04:44:18.345Z,12.15
2023-04-26T04:46:45.332Z,12.20
2023-04-26T04:49:15.068Z,12.24
2023-04-26T04:51:42.247Z,12.27
2023-04-26T04:54:13.096Z,12.31
2023-04-26T04:56:47.606Z,12.37
2023-04-26T04:59:17.735Z,12.43
2023-04-26T05:01:45.418Z,12.49
2023-04-26T05:04:14.620Z,12.52
2023-04-26T05:06:42.274Z,12.55
2023-04-26T05:09:11.668Z,12.60
2023-04-26T05:11:38.727Z,12.68
2023-04-26T05:14:08.058Z,12.75
2023-04-26T05:16:36.119Z,12.83
2023-04-26T05:19:03.495Z,12.90
2023-04-26T05:21:31.718Z,12.96
2023-04-26T05:23:58.682Z,13.00
2023-04-26T05:26:26.475Z,13.01
2023-04-26T05:29:15.887Z,13.03
2023-04-26T05:32:01.509Z,13.07
2023-04-26T05:34:41.604Z,13.11
2023-04-26T05:37:11.654Z,13.14
2023-04-26T05:39:40.097Z,13.15
2023-04-26T05:42:07.357Z,13.17
2023-04-26T05:44:34.238Z,13.23
2023-04-26T05:47:02.076Z,13.29
2023-04-26T05:49:28.945Z,13.33
2023-04-26T05:51:57.776Z,13.37
2023-04-26T05:54:25.080Z,13.43
2023-04-26T05:56:52.642Z,13.51
2023-04-26T05:59:19.830Z,13.56
2023-04-26T06:01:46.745Z,13.63
2023-04-26T06:04:13.722Z,13.68
2023-04-26T06:06:56.734Z,13.73
2023-04-26T06:09:23.763Z,13.79
2023-04-26T06:11:50.713Z,13.90
2023-04-26T06:14:29.212Z,14.03
2023-04-26T06:16:58.874Z,14.14
2023-04-26T06:19:27.630Z,14.26
2023-04-26T06:21:55.587Z,14.39
2023-04-26T06:24:23.659Z,14.47
2023-04-26T06:26:50.505Z,14.55
2023-04-26T06:29:17.734Z,14.60
2023-04-26T06:31:44.556Z,14.66
2023-04-26T06:34:12.556Z,14.76
2023-04-26T06:36:39.395Z,14.86
2023-04-26T06:39:06.416Z,14.95
2023-04-26T06:41:33.560Z,15.01
2023-04-26T06:44:00.547Z,15.04
2023-04-26T06:46:31.166Z,15.05
2023-04-26T06:48:58.060Z,15.06
2023-04-26T06:51:25.246Z,15.08
2023-04-26T06:53:53.074Z,15.13
2023-04-26T06:56:20.160Z,15.23
2023-04-26T06:59:06.321Z,15.35
2023-04-26T07:01:34.793Z,15.41
2023-04-26T07:04:05.055Z,15.45
2023-04-26T07:06:32.160Z,15.50
2023-04-26T07:09:01.216Z,15.57
2023-04-26T07:11:29.336Z,15.71
2023-04-26T07:13:57.156Z,15.87
2023-04-26T07:16:24.215Z,16.08
2023-04-26T07:18:53.087Z,16.29
2023-04-26T07:21:19.928Z,16.45
2023-04-26T07:23:46.708Z,16.54
2023-04-26T07:26:13.664Z,16.65
2023-04-26T07:29:13.668Z,16.70
2023-04-26T07:31:40.738Z,16.68
2023-04-26T07:34:07.659Z,16.62
2023-04-26T07:36:34.484Z,16.58
2023-04-26T07:39:01.928Z,16.55
2023-04-26T07:41:28.898Z,16.52
2023-04-26T07:43:55.959Z,16.53
2023-04-26T07:46:22.840Z,16.60
2023-04-26T07:48:49.906Z,16.67
2023-04-26T07:51:16.809Z,16.74
2023-04-26T07:53:43.697Z,16.80
2023-04-26T07:56:10.669Z,16.80
2023-04-26T07:58:40.821Z,16.78
2023-04-26T08:01:08.800Z,16.76
2023-04-26T08:03:38.974Z,16.73
2023-04-26T08:06:09.230Z,16.70
2023-04-26T08:08:42.949Z,16.67
2023-04-26T08:11:10.840Z,16.63
2023-04-26T08:13:39.125Z,16.60
2023-04-26T08:16:07.253Z,16.69
2023-04-26T08:18:34.037Z,16.88
2023-04-26T08:21:01.525Z,17.04
2023-04-26T08:23:32.151Z,17.15
2023-04-26T08:25:58.962Z,17.21
2023-04-26T08:28:25.850Z,17.24
2023-04-26T08:30:53.140Z,17.26
2023-04-26T08:33:20.050Z,17.22
2023-04-26T08:35:47.503Z,17.18
2023-04-26T08:38:14.488Z,17.20
2023-04-26T08:40:41.299Z,17.27
2023-04-26T08:43:08.870Z,17.38
2023-04-26T08:45:35.643Z,17.48
2023-04-26T08:48:04.964Z,17.52
2023-04-26T08:50:33.587Z,17.54
2023-04-26T08:53:00.431Z,17.53
2023-04-26T08:55:27.252Z,17.47
2023-04-26T08:57:54.051Z,17.45
2023-04-26T09:00:21.651Z,17.52
2023-04-26T09:02:53.969Z,17.71
2023-04-26T09:05:24.923Z,17.92
2023-04-26T09:07:53.253Z,18.07
2023-04-26T09:10:23.207Z,18.18
2023-04-26T09:12:53.794Z,18.35
2023-04-26T09:15:22.710Z,18.51
2023-04-26T09:17:52.811Z,18.66
2023-04-26T09:20:27.872Z,18.89
2023-04-26T09:23:04.751Z,19.18
2023-04-26T09:25:32.017Z,19.39
2023-04-26T09:28:00.404Z,19.57
2023-04-26T09:30:27.882Z,19.75
2023-04-26T09:32:55.987Z,19.91
2023-04-26T09:35:39.209Z,19.98
2023-04-26T09:38:11.022Z,20.06
2023-04-26T09:40:43.005Z,20.19
2023-04-26T09:43:13.356Z,20.32
2023-04-26T09:45:54.247Z,20.31
2023-04-26T09:48:33.184Z,20.27
2023-04-26T09:51:03.120Z,20.20
2023-04-26T09:53:41.727Z,20.10
2023-04-26T09:56:11.673Z,19.98
2023-04-26T09:58:58.395Z,19.86
2023-04-26T10:01:26.589Z,19.73
2023-04-26T10:03:53.879Z,19.67
2023-04-26T10:06:20.940Z,19.66
2023-04-26T10:08:47.736Z,19.61
2023-04-26T10:11:14.607Z,19.50
2023-04-26T10:13:41.941Z,19.40
2023-04-26T10:16:10.074Z,19.25
2023-04-26T10:18:37.600Z,19.06
2023-04-26T10:21:13.159Z,18.88
2023-04-26T10:23:40.053Z,18.70
2023-04-26T10:26:07.670Z,18.52
2023-04-26T10:28:41.469Z,18.32
2023-04-26T10:31:08.333Z,18.00
2023-04-26T10:33:35.175Z,17.66
2023-04-26T10:36:12.633Z,17.33
2023-04-26T10:38:41.119Z,17.00
2023-04-26T10:41:33.204Z,16.74
2023-04-26T10:44:01.879Z,16.55
2023-04-26T10:46:39.722Z,16.41
2023-04-26T10:49:17.159Z,16.30
2023-04-26T10:52:14.955Z,16.22
2023-04-26T10:55:00.190Z,16.14
2023-04-26T10:57:50.471Z,16.06
2023-04-26T11:00:26.807Z,16.02
2023-04-26T11:03:09.031Z,16.04
2023-04-26T11:05:36.355Z,16.12
2023-04-26T11:08:25.578Z,16.24
2023-04-26T11:11:13.522Z,16.46
2023-04-26T11:13:43.844Z,16.72
2023-04-26T11:16:14.913Z,16.96
2023-04-26T11:18:43.260Z,17.14
2023-04-26T11:21:10.415Z,17.27
2023-04-26T11:23:37.710Z,17.32
2023-04-26T11:26:06.597Z,17.33
2023-04-26T11:28:34.711Z,17.35
2023-04-26T11:31:04.460Z,17.44
2023-04-26T11:33:31.562Z,17.55
2023-04-26T11:35:58.506Z,17.69
2023-04-26T11:38:26.873Z,17.85
2023-04-26T11:40:56.089Z,17.97
2023-04-26T11:43:23.041Z,18.06
2023-04-26T11:45:49.895Z,18.18
2023-04-26T11:48:16.817Z,18.30
2023-04-26T11:50:43.783Z,18.37
2023-04-26T11:53:10.661Z,18.45
2023-04-26T11:55:37.516Z,18.52
2023-04-26T11:58:12.662Z,18.57
2023-04-26T12:00:56.693Z,18.64
2023-04-26T12:03:24.750Z,18.66
2023-04-26T12:05:57.868Z,18.65
2023-04-26T12:08:26.141Z,18.61
2023-04-26T12:10:53.354Z,18.53
2023-04-26T12:13:20.454Z,18.43
2023-04-26T12:15:51.493Z,18.34
2023-04-26T12:18:18.376Z,18.24
2023-04-26T12:20:48.124Z,18.18
2023-04-26T12:23:16.677Z,18.14
2023-04-26T12:25:57.571Z,18.11
2023-04-26T12:28:24.562Z,18.08
2023-04-26T12:30:51.443Z,17.97
2023-04-26T12:33:23.030Z,17.84
2023-04-26T12:35:50.882Z,17.69
2023-04-26T12:40:45.979Z,17.47
2023-04-26T12:43:13.005Z,17.42
2023-04-26T12:45:39.891Z,17.41
2023-04-26T12:48:06.878Z,17.38
2023-04-26T12:50:33.940Z,17.28
2023-04-26T12:53:00.831Z,17.07
2023-04-26T12:55:28.573Z,16.83
2023-04-26T12:57:56.283Z,16.67
2023-04-26T13:00:23.164Z,16.55
2023-04-26T13:02:50.195Z,16.46
2023-04-26T13:05:17.106Z,16.42
2023-04-26T13:07:44.914Z,16.39
2023-04-26T13:10:13.133Z,16.37
2023-04-26T13:12:40.343Z,16.37
2023-04-26T13:15:08.248Z,16.36
2023-04-26T13:17:36.325Z,16.34
2023-04-26T13:20:07.131Z,16.34
2023-04-26T13:22:34.210Z,16.35
2023-04-26T13:25:01.108Z,16.34
2023-04-26T13:27:30.482Z,16.35
2023-04-26T13:29:58.645Z,16.36
2023-04-26T13:32:25.772Z,16.37
2023-04-26T13:34:53.409Z,16.41
2023-04-26T13:37:21.494Z,16.46
2023-04-26T13:39:48.662Z,16.50
2023-04-26T13:42:16.559Z,16.55
2023-04-26T13:44:43.528Z,16.58
2023-04-26T13:47:10.401Z,16.57
2023-04-26T13:49:38.849Z,16.59
2023-04-26T13:52:05.630Z,16.64
2023-04-26T13:54:32.555Z,16.71
2023-04-26T13:56:59.437Z,16.83
2023-04-26T13:59:26.967Z,16.97
2023-04-26T14:01:56.370Z,17.08
2023-04-26T14:04:25.850Z,17.16
2023-04-26T14:06:52.954Z,17.24
2023-04-26T14:09:19.795Z,17.29
2023-04-26T14:11:51.599Z,17.28
2023-04-26T14:14:21.313Z,17.30
2023-04-26T14:16:48.141Z,17.32
2023-04-26T14:19:15.903Z,17.32
2023-04-26T14:21:42.751Z,17.34
2023-04-26T14:24:09.588Z,17.37
2023-04-26T14:26:36.599Z,17.40
2023-04-26T14:29:05.096Z,17.41
2023-04-26T14:31:32.760Z,17.42
2023-04-26T14:33:59.708Z,17.46
2023-04-26T14:36:28.112Z,17.52
2023-04-26T14:38:54.998Z,17.58
2023-04-26T14:41:21.780Z,17.62
2023-04-26T14:43:48.848Z,17.66
2023-04-26T14:46:15.716Z,17.70
2023-04-26T14:48:43.950Z,17.73
2023-04-26T14:51:11.316Z,17.74
2023-04-26T14:53:38.858Z,17.75
2023-04-26T14:56:07.673Z,17.77
2023-04-26T14:58:34.688Z,17.78
2023-04-26T15:01:02.591Z,17.78
2023-04-26T15:03:29.814Z,17.76
2023-04-26T15:05:57.206Z,17.75
2023-04-26T15:08:24.073Z,17.72
2023-04-26T15:10:51.573Z,17.71
2023-04-26T15:13:18.845Z,17.71
2023-04-26T15:15:46.100Z,17.71
2023-04-26T15:18:13.150Z,17.69
2023-04-26T15:20:40.981Z,17.66
2023-04-26T15:23:08.576Z,17.64
2023-04-26T15:25:36.996Z,17.60
2023-04-26T15:28:04.079Z,17.57
2023-04-26T15:30:31.013Z,17.53
2023-04-26T15:32:57.984Z,17.51
2023-04-26T15:35:25.240Z,17.50
2023-04-26T15:37:54.108Z,17.49
2023-04-26T15:40:21.920Z,17.50
2023-04-26T15:42:49.411Z,17.50
2023-04-26T15:45:16.699Z,17.49
2023-04-26T15:47:43.518Z,17.48
2023-04-26T15:50:10.876Z,17.49
2023-04-26T15:52:39.291Z,17.49
2023-04-26T15:55:10.560Z,17.51
2023-04-26T15:57:37.770Z,17.52
2023-04-26T16:00:08.591Z,17.53
2023-04-26T16:02:35.734Z,17.52
2023-04-26T16:05:03.131Z,17.51
2023-04-26T16:07:30.504Z,17.49
2023-04-26T16:09:57.340Z,17.45
2023-04-26T16:12:24.276Z,17.39
2023-04-26T16:14:52.061Z,17.31
2023-04-26T16:17:18.817Z,17.20
2023-04-26T16:19:45.957Z,17.10
2023-04-26T16:22:12.782Z,17.02
2023-04-26T16:24:40.254Z,16.93
2023-04-26T16:27:07.132Z,16.85
2023-04-26T16:29:33.928Z,16.80
2023-04-26T16:32:01.045Z,16.75
2023-04-26T16:34:28.308Z,16.70
2023-04-26T16:36:55.109Z,16.65
2023-04-26T16:39:23.321Z,16.60
2023-04-26T16:41:50.160Z,16.55
2023-04-26T16:44:17.024Z,16.50
2023-04-26T16:46:43.951Z,16.46
2023-04-26T16:49:11.029Z,16.42
2023-04-26T16:51:38.225Z,16.37
2023-04-26T16:54:05.162Z,16.33
2023-04-26T16:56:32.453Z,16.29
2023-04-26T16:58:59.698Z,16.26
2023-04-26T17:01:26.882Z,16.23
2023-04-26T17:03:54.202Z,16.18
2023-04-26T17:06:21.314Z,16.14
2023-04-26T17:08:48.127Z,16.10
2023-04-26T17:11:16.306Z,16.05
2023-04-26T17:13:43.438Z,16.00
2023-04-26T17:16:10.531Z,15.94
2023-04-26T17:18:37.487Z,15.89
2023-04-26T17:21:04.861Z,15.85
2023-04-26T17:23:33.633Z,15.80
2023-04-26T17:26:01.571Z,15.74
2023-04-26T17:28:28.723Z,15.70
2023-04-26T17:30:55.639Z,15.66
2023-04-26T17:33:23.021Z,15.64
2023-04-26T17:35:49.839Z,15.60
2023-04-26T17:38:16.727Z,15.56
2023-04-26T17:40:43.528Z,15.52
2023-04-26T17:43:11.403Z,15.48
2023-04-26T17:45:38.471Z,15.45
2023-04-26T17:48:05.707Z,15.43
2023-04-26T17:50:32.722Z,15.42
2023-04-26T17:52:59.639Z,15.40
2023-04-26T17:55:27.041Z,15.38
2023-04-26T17:57:53.884Z,15.36
2023-04-26T18:00:20.856Z,15.34
2023-04-26T18:02:48.818Z,15.32
2023-04-26T18:05:16.591Z,15.30
2023-04-26T18:07:43.461Z,15.27
2023-04-26T18:10:10.431Z,15.25
2023-04-26T18:12:37.306Z,15.22
2023-04-26T18:15:04.509Z,15.19
2023-04-26T18:17:31.844Z,15.17
2023-04-26T18:19:58.920Z,15.16
2023-04-26T18:22:26.169Z,15.13
2023-04-26T18:24:52.978Z,15.12
2023-04-26T18:27:19.795Z,15.10
2023-04-26T18:29:47.853Z,15.07
2023-04-26T18:32:15.290Z,15.06
2023-04-26T18:34:42.144Z,15.04
2023-04-26T18:37:09.486Z,15.02
2023-04-26T18:39:36.423Z,15.00
2023-04-26T18:42:03.674Z,14.99
2023-04-26T18:44:30.510Z,14.98
2023-04-26T18:46:57.405Z,14.98
2023-04-26T18:49:25.061Z,14.98
2023-04-26T18:51:51.921Z,14.98
2023-04-26T18:54:18.705Z,14.97
2023-04-26T18:56:45.642Z,14.96
2023-04-26T18:59:13.082Z,14.95
2023-04-26T19:01:39.979Z,14.96
2023-04-26T19:04:09.153Z,14.96
2023-04-26T19:06:36.298Z,14.97
2023-04-26T19:09:04.655Z,14.98
2023-04-26T19:11:31.610Z,14.99
2023-04-26T19:13:58.583Z,14.99
2023-04-26T19:16:26.065Z,14.98
2023-04-26T19:18:52.991Z,14.96
2023-04-26T19:21:20.060Z,14.92
2023-04-26T19:23:47.112Z,14.90
2023-04-26T19:26:14.128Z,14.88
2023-04-26T19:28:41.121Z,14.84
2023-04-26T19:31:08.102Z,14.81
2023-04-26T19:33:35.334Z,14.81
2023-04-26T19:36:02.516Z,14.84
2023-04-26T19:38:29.481Z,14.85
2023-04-26T19:40:56.338Z,14.85
2023-04-26T19:43:23.202Z,14.85
2023-04-26T19:45:50.197Z,14.85
2023-04-26T19:48:17.130Z,14.84
2023-04-26T19:50:45.360Z,14.84
2023-04-26T20:00:48.037Z,14.85
2023-04-26T20:03:15.075Z,14.83
2023-04-26T20:05:42.171Z,14.82
2023-04-26T20:08:09.222Z,14.80
2023-04-26T20:10:36.158Z,14.77
2023-04-26T20:13:03.115Z,14.75
2023-04-26T20:15:32.216Z,14.73
2023-04-26T20:18:02.317Z,14.72
2023-04-26T20:20:29.343Z,14.71
2023-04-26T20:22:56.420Z,14.70
2023-04-26T20:25:23.634Z,14.67
2023-04-26T20:27:50.636Z,14.66
2023-04-26T20:30:17.516Z,14.65
2023-04-26T20:32:44.409Z,14.64
2023-04-26T20:35:13.854Z,14.63
2023-04-26T20:37:40.861Z,14.60
2023-04-26T20:40:09.385Z,14.57
2023-04-26T20:42:36.584Z,14.56
2023-04-26T20:45:04.021Z,14.54
2023-04-26T20:47:31.298Z,14.51
2023-04-26T20:49:58.135Z,14.50
2023-04-26T20:52:25.211Z,14.48
2023-04-26T20:54:51.965Z,14.47
2023-04-26T20:57:19.101Z,14.48
2023-04-26T20:59:46.820Z,14.48
2023-04-26T21:02:16.215Z,14.48
2023-04-26T21:04:46.509Z,14.47
2023-04-26T21:07:13.498Z,14.45
2023-04-26T21:09:40.465Z,14.44
2023-04-26T21:12:07.582Z,14.42
2023-04-26T21:14:34.464Z,14.41
2023-04-26T21:17:05.581Z,14.42
2023-04-26T21:19:33.059Z,14.42
2023-04-26T21:22:00.864Z,14.44
2023-04-26T21:24:30.271Z,14.45
2023-04-26T21:26:59.331Z,14.45
2023-04-26T21:29:27.676Z,14.45
2023-04-26T21:31:55.317Z,14.46
2023-04-26T21:34:22.399Z,14.46
2023-04-26T21:36:50.528Z,14.45
2023-04-26T21:39:18.375Z,14.45
2023-04-26T21:41:45.333Z,14.45
2023-04-26T21:44:13.309Z,14.45
2023-04-26T21:46:40.298Z,14.45
2023-04-26T21:49:07.422Z,14.44
2023-04-26T21:51:34.492Z,14.44
2023-04-26T21:54:01.409Z,14.45
2023-04-26T21:56:28.198Z,14.46
2023-04-26T21:58:55.241Z,14.44
2023-04-26T22:01:22.476Z,14.40
2023-04-26T22:03:49.720Z,14.38
2023-04-26T22:06:17.122Z,14.36
2023-04-26T22:08:44.161Z,14.32
2023-04-26T22:11:11.101Z,14.27
2023-04-26T22:13:38.143Z,14.23
2023-04-26T22:16:05.734Z,14.21
2023-04-26T22:18:33.138Z,14.19
2023-04-26T22:21:00.578Z,14.15
2023-04-26T22:23:27.553Z,14.12
2023-04-26T22:25:54.430Z,14.09
2023-04-26T22:28:21.345Z,14.06
2023-04-26T22:30:48.525Z,14.04
2023-04-26T22:42:38.834Z,13.96
2023-04-26T22:45:07.250Z,13.94
2023-04-26T22:47:34.378Z,13.93
2023-04-26T22:50:01.538Z,13.92
2023-04-26T22:52:31.754Z,13.90
2023-04-26T22:55:00.096Z,13.89
2023-04-26T22:57:28.782Z,13.87
2023-04-26T22:59:55.632Z,13.86
2023-04-26T23:02:22.630Z,13.85
2023-04-26T23:04:49.652Z,13.83
2023-04-26T23:07:17.131Z,13.81
2023-04-26T23:09:44.033Z,13.78
2023-04-26T23:12:10.904Z,13.77
2023-04-26T23:14:37.894Z,13.77
2023-04-26T23:17:05.634Z,13.78
2023-04-26T23:19:33.270Z,13.81
2023-04-26T23:22:00.229Z,13.81
2023-04-26T23:24:27.339Z,13.82
2023-04-26T23:26:54.317Z,13.82
2023-04-26T23:29:21.922Z,13.82
2023-04-26T23:31:49.282Z,13.81
2023-04-26T23:34:16.835Z,13.80
2023-04-26T23:36:43.821Z,13.79
2023-04-26T23:39:11.547Z,13.78
2023-04-26T23:41:38.568Z,13.75
2023-04-26T23:44:05.789Z,13.73
2023-04-26T23:46:32.892Z,13.71
2023-04-26T23:48:59.866Z,13.68
2023-04-26T23:51:27.828Z,13.64
2023-04-26T23:53:54.984Z,13.59
2023-04-26T23:56:22.354Z,13.54
2023-04-26T23:58:49.749Z,13.48
